Erick, OK (73645)

8:30 AM CDT on August 30, 2016 (GMT -0500)
Clinton-Sherman | | Change Station

Elev 1923 ft 35.34 °N, 99.20 °W | Updated 37 minutes ago

Mostly Cloudy
Mostly Cloudy
72 °F
Feels Like 72 °F
N
8
Wind Variable Wind from North

Today
High -- | Low -- °F
--% Chance of Precip.
Yesterday
High -- | Low -- °F
Precip. -- in
Pressure 30.12 in
Visibility 8.0 miles
Clouds Scattered Clouds 4700 ft
Mostly Cloudy 5500 ft
Dew Point 69 °F
Humidity 91%
Rainfall 0.00 in
Snow Depth Not available.
7:10 AM 8:08 PM
Waning Crescent, 4% visible
METAR KCSM 301253Z AUTO 35007KT 8SM SCT047 BKN055 22/21 A3018 RMK AO2 LTG DSNT SE AND S SLP198 T02220206
Pressure 30.12 in
Visibility 8.0 miles
Clouds Scattered Clouds 4700 ft
Mostly Cloudy 5500 ft
Dew Point 69 °F
Humidity 91%
Rainfall 0.00 in
Snow Depth Not available.
7:10 AM 8:08 PM
Waning Crescent, 4% visible
METAR KCSM 301253Z AUTO 35007KT 8SM SCT047 BKN055 22/21 A3018 RMK AO2 LTG DSNT SE AND S SLP198 T02220206

10-Day Weather Forecast

Almanac

Astronomy

Aug. 30, 2016 Rise Set
Actual Time
Civil Twilight
Nautical Twilight
Astronomical Twilight
Moon
Length of Visible Light
Length of Day
Tomorrow will be .
, % of the Moon is Illuminated

Today's Extremes

State Highs State Lows

Community

WunderPhotos

Upload Photos

1,935,831 photos uploaded!

WunderBlog® & News

Nearby

Air Quality

  Air Quality AQ Index Pollutant
Not available.

Snow Depth

Station Depth Elevation

Earthquake Activity

City Distance Mag. Time & Date
Minimum magnitude displayed is 2.5.

Coastal Water Temperatures

Place Temperature

Stations

Nearby Weather Stations

Station Location Temp. Windchill Dew Point Humidity Wind Precip. Elev Updated Type
                   

Watches & Warnings

There are currently no watches in effect.